Time;durP1;ratioP1;P1;durP2;ratioP2;P2;SDS_P1;SDS_P2;PMS_P1;PMS_P2;Temp;Humidity;BMP_temperature;BMP_pressure;BME280_temperature;BME280_humidity;BME280_pressure;Samples;Min_cycle;Max_cycle;Signal;HPM_P1;HPM_P2
2023/08/10 00:01:55;;;;;;;7.80;3.70;;;;;;;;;;6338872;27;20336;-78
2023/08/10 00:04:57;;;;;;;5.95;3.70;;;;;;;;;;6338940;27;20066;-79
2023/08/10 00:07:58;;;;;;;7.30;3.97;;;;;;;;;;6339900;28;20055;-79
2023/08/10 00:11:01;;;;;;;7.53;4.13;;;;;;;;;;6337287;28;20062;-80
2023/08/10 00:14:03;;;;;;;9.45;3.97;;;;;;;;;;6338893;28;20039;-78
2023/08/10 00:17:05;;;;;;;6.07;3.30;;;;;;;;;;6338075;28;20356;-78
2023/08/10 00:20:10;;;;;;;8.75;4.35;;;;;;;;;;6339177;28;20043;-78
2023/08/10 00:23:11;;;;;;;7.05;3.63;;;;;;;;;;6337153;27;20119;-80
2023/08/10 00:26:14;;;;;;;6.65;3.28;;;;;;;;;;6342006;28;20059;-78
2023/08/10 00:29:16;;;;;;;5.25;3.47;;;;;;;;;;6340324;27;20059;-79
2023/08/10 00:32:19;;;;;;;4.78;3.50;;;;;;;;;;6336924;28;20063;-79
2023/08/10 00:35:20;;;;;;;6.88;3.20;;;;;;;;;;6339439;28;20048;-79
2023/08/10 00:38:22;;;;;;;6.90;3.50;;;;;;;;;;6334936;28;20187;-80
2023/08/10 00:41:24;;;;;;;9.93;3.42;;;;;;;;;;6336754;28;20055;-80
2023/08/10 00:44:26;;;;;;;5.82;3.25;;;;;;;;;;6337045;28;20058;-80
2023/08/10 00:47:28;;;;;;;9.13;3.72;;;;;;;;;;6338919;28;20347;-80
2023/08/10 00:50:29;;;;;;;7.22;3.45;;;;;;;;;;6337270;28;20044;-79
2023/08/10 00:53:32;;;;;;;7.40;3.30;;;;;;;;;;6336800;28;20054;-79
2023/08/10 00:56:35;;;;;;;6.70;3.50;;;;;;;;;;6334467;28;20064;-80
2023/08/10 00:59:36;;;;;;;6.13;3.08;;;;;;;;;;6338359;28;20044;-78
2023/08/10 01:02:38;;;;;;;6.18;3.00;;;;;;;;;;6337922;28;20051;-78
2023/08/10 01:05:42;;;;;;;5.35;3.10;;;;;;;;;;6340712;28;20056;-80
2023/08/10 01:08:48;;;;;;;7.70;3.33;;;;;;;;;;6338584;28;20056;-80
2023/08/10 01:11:54;;;;;;;4.50;2.85;;;;;;;;;;6335578;28;20051;-79
2023/08/10 01:15:06;;;;;;;5.43;2.90;;;;;;;;;;6335692;28;20391;-79
2023/08/10 01:18:10;;;;;;;6.45;2.90;;;;;;;;;;6340919;28;20328;-79
2023/08/10 01:21:16;;;;;;;5.22;3.05;;;;;;;;;;6340512;27;20598;-80
2023/08/10 01:24:21;;;;;;;5.93;2.92;;;;;;;;;;6344975;27;20247;-80
2023/08/10 01:27:24;;;;;;;4.22;3.00;;;;;;;;;;6340552;28;20051;-77
2023/08/10 01:30:26;;;;;;;5.97;2.97;;;;;;;;;;6341980;27;20047;-79
2023/08/10 01:33:27;;;;;;;6.10;2.85;;;;;;;;;;6342008;27;20097;-80
2023/08/10 01:36:29;;;;;;;7.57;3.30;;;;;;;;;;6340426;27;20048;-79
2023/08/10 01:39:32;;;;;;;4.72;2.60;;;;;;;;;;6340489;28;20050;-79
2023/08/10 01:42:34;;;;;;;4.22;2.78;;;;;;;;;;6341627;28;20052;-78
2023/08/10 01:45:36;;;;;;;5.53;2.38;;;;;;;;;;6341347;27;20051;-80
2023/08/10 01:48:38;;;;;;;6.38;3.00;;;;;;;;;;6338901;28;20415;-80
2023/08/10 01:51:40;;;;;;;4.03;2.38;;;;;;;;;;6344459;28;20059;-79
2023/08/10 01:54:42;;;;;;;4.82;2.50;;;;;;;;;;6346106;27;20064;-79
2023/08/10 01:57:45;;;;;;;5.03;2.45;;;;;;;;;;6342451;28;20343;-79
2023/08/10 02:00:46;;;;;;;3.72;2.20;;;;;;;;;;6342082;27;20335;-79
2023/08/10 02:03:48;;;;;;;4.50;2.50;;;;;;;;;;6342873;27;20038;-79
2023/08/10 02:06:49;;;;;;;7.13;2.72;;;;;;;;;;6339815;27;20059;-80
2023/08/10 02:09:51;;;;;;;4.03;2.10;;;;;;;;;;6343201;27;20055;-79
2023/08/10 02:12:54;;;;;;;4.32;2.13;;;;;;;;;;6340772;28;20051;-79
2023/08/10 02:15:55;;;;;;;4.38;2.50;;;;;;;;;;6344764;27;20343;-79
2023/08/10 02:18:56;;;;;;;5.35;2.28;;;;;;;;;;6344843;27;20059;-80
2023/08/10 02:21:58;;;;;;;8.32;2.08;;;;;;;;;;6346005;27;20068;-80
2023/08/10 02:24:59;;;;;;;4.47;2.17;;;;;;;;;;6348944;27;20040;-79
2023/08/10 02:28:02;;;;;;;3.15;1.83;;;;;;;;;;6340345;28;20062;-79
2023/08/10 02:31:04;;;;;;;4.32;2.25;;;;;;;;;;6337443;28;20051;-77
2023/08/10 02:34:06;;;;;;;5.65;2.08;;;;;;;;;;6339538;28;20248;-78
2023/08/10 02:37:08;;;;;;;3.22;1.80;;;;;;;;;;6339061;27;20109;-79
2023/08/10 02:40:11;;;;;;;3.42;2.08;;;;;;;;;;6337611;28;20044;-80
2023/08/10 02:43:14;;;;;;;3.03;1.70;;;;;;;;;;6338303;28;20108;-78
2023/08/10 02:46:15;;;;;;;3.17;1.67;;;;;;;;;;6341589;27;20097;-79
2023/08/10 02:49:17;;;;;;;3.40;1.65;;;;;;;;;;6339105;28;20047;-79
2023/08/10 02:52:19;;;;;;;3.38;1.88;;;;;;;;;;6338173;28;20064;-79
2023/08/10 02:55:21;;;;;;;8.77;2.15;;;;;;;;;;6338959;27;20043;-80
2023/08/10 02:58:24;;;;;;;3.88;1.90;;;;;;;;;;6340743;28;20255;-79
2023/08/10 03:01:25;;;;;;;3.83;1.63;;;;;;;;;;6339384;27;21240;-80
2023/08/10 03:04:27;;;;;;;6.88;2.33;;;;;;;;;;6344138;27;20043;-79
2023/08/10 03:07:29;;;;;;;2.40;1.35;;;;;;;;;;6340665;27;20266;-79
2023/08/10 03:10:31;;;;;;;5.70;1.70;;;;;;;;;;6341117;27;20473;-79
2023/08/10 03:13:33;;;;;;;3.42;1.70;;;;;;;;;;6336646;27;20051;-79
2023/08/10 03:16:35;;;;;;;4.82;1.80;;;;;;;;;;6338397;27;20039;-78
2023/08/10 03:19:37;;;;;;;2.90;1.75;;;;;;;;;;6340317;27;20690;-80
2023/08/10 03:22:38;;;;;;;5.05;1.60;;;;;;;;;;6337781;28;20060;-79
2023/08/10 03:25:40;;;;;;;4.30;1.95;;;;;;;;;;6339367;27;20051;-79
2023/08/10 03:28:43;;;;;;;2.60;1.60;;;;;;;;;;6340797;27;20054;-80
2023/08/10 03:31:44;;;;;;;2.58;1.40;;;;;;;;;;6340287;27;20047;-80
2023/08/10 03:34:45;;;;;;;4.88;1.90;;;;;;;;;;6341718;27;20112;-80
2023/08/10 03:37:47;;;;;;;2.20;1.50;;;;;;;;;;6339102;27;20051;-79
2023/08/10 03:40:48;;;;;;;3.83;2.03;;;;;;;;;;6336383;28;20052;-78
2023/08/10 03:43:51;;;;;;;4.85;1.95;;;;;;;;;;6340009;27;20051;-79
2023/08/10 03:46:53;;;;;;;5.13;1.83;;;;;;;;;;6337536;28;20104;-79
2023/08/10 03:49:55;;;;;;;6.43;2.20;;;;;;;;;;6338843;27;20051;-80
2023/08/10 03:52:56;;;;;;;2.97;1.77;;;;;;;;;;6339286;28;20063;-79
2023/08/10 03:55:58;;;;;;;4.03;1.95;;;;;;;;;;6339086;27;20050;-78
2023/08/10 03:59:01;;;;;;;6.18;2.08;;;;;;;;;;6338202;28;20433;-79
2023/08/10 04:02:02;;;;;;;4.80;1.80;;;;;;;;;;6336807;27;20244;-79
2023/08/10 04:05:06;;;;;;;3.83;2.20;;;;;;;;;;6338473;27;20120;-79
2023/08/10 04:08:08;;;;;;;4.35;1.90;;;;;;;;;;6339746;27;20051;-80
2023/08/10 04:11:09;;;;;;;5.10;2.20;;;;;;;;;;6336821;28;20339;-81
2023/08/10 04:14:12;;;;;;;4.63;2.42;;;;;;;;;;6338453;28;20040;-81
2023/08/10 04:17:14;;;;;;;4.38;2.20;;;;;;;;;;6336035;28;20092;-80
2023/08/10 04:20:15;;;;;;;4.80;1.70;;;;;;;;;;6337029;28;20051;-80
2023/08/10 04:23:19;;;;;;;7.18;2.58;;;;;;;;;;6337217;28;20044;-81
2023/08/10 04:26:20;;;;;;;4.22;2.45;;;;;;;;;;6338747;27;20048;-79
2023/08/10 04:29:26;;;;;;;4.60;2.47;;;;;;;;;;6334844;28;20051;-80
2023/08/10 04:32:28;;;;;;;6.78;2.50;;;;;;;;;;6336735;28;20554;-80
2023/08/10 04:35:29;;;;;;;4.22;2.00;;;;;;;;;;6337422;28;20240;-80
2023/08/10 04:38:30;;;;;;;4.20;2.25;;;;;;;;;;6336090;28;20059;-80
2023/08/10 04:41:32;;;;;;;3.05;2.33;;;;;;;;;;6335925;28;20048;-81
2023/08/10 04:44:35;;;;;;;3.85;2.35;;;;;;;;;;6337446;28;20097;-81
2023/08/10 04:47:37;;;;;;;3.55;2.50;;;;;;;;;;6337309;28;20047;-81
2023/08/10 04:50:38;;;;;;;5.63;3.25;;;;;;;;;;6342505;28;20056;-81
2023/08/10 04:53:40;;;;;;;5.15;2.67;;;;;;;;;;6343089;27;20123;-80
2023/08/10 04:56:41;;;;;;;5.15;2.78;;;;;;;;;;6346730;27;20232;-81
2023/08/10 04:59:44;;;;;;;6.03;3.20;;;;;;;;;;6342896;28;20074;-82
2023/08/10 05:02:45;;;;;;;8.95;3.38;;;;;;;;;;6341800;28;20084;-81
2023/08/10 05:05:47;;;;;;;5.20;2.75;;;;;;;;;;6343703;27;20073;-79
2023/08/10 05:08:48;;;;;;;4.75;2.90;;;;;;;;;;6342553;28;20058;-79
2023/08/10 05:11:50;;;;;;;6.45;2.97;;;;;;;;;;6340887;28;20119;-80
2023/08/10 05:14:53;;;;;;;5.25;2.80;;;;;;;;;;6340871;27;20054;-81
2023/08/10 05:17:55;;;;;;;5.90;3.10;;;;;;;;;;6344250;28;20052;-80
2023/08/10 05:20:59;;;;;;;4.55;3.28;;;;;;;;;;6340852;28;20063;-81
2023/08/10 05:24:00;;;;;;;5.28;3.20;;;;;;;;;;6343091;27;20059;-80
2023/08/10 05:27:02;;;;;;;6.30;3.30;;;;;;;;;;6340927;28;20054;-80
2023/08/10 05:30:08;;;;;;;4.75;3.33;;;;;;;;;;6340873;28;20358;-78
2023/08/10 05:33:10;;;;;;;7.13;2.97;;;;;;;;;;6339721;28;20115;-81
2023/08/10 05:36:11;;;;;;;4.57;2.78;;;;;;;;;;6342609;27;20097;-80
2023/08/10 05:39:13;;;;;;;7.75;3.10;;;;;;;;;;6340871;27;20058;-80
2023/08/10 05:42:15;;;;;;;6.45;3.05;;;;;;;;;;6342951;27;20055;-81
2023/08/10 05:45:19;;;;;;;4.68;2.80;;;;;;;;;;6340918;27;20079;-80
2023/08/10 05:48:20;;;;;;;6.43;3.17;;;;;;;;;;6338652;27;20060;-80
2023/08/10 05:51:22;;;;;;;6.20;3.20;;;;;;;;;;6340573;27;20055;-79
2023/08/10 05:54:23;;;;;;;5.38;2.60;;;;;;;;;;6343493;27;20048;-79
2023/08/10 05:57:24;;;;;;;10.43;2.92;;;;;;;;;;6341645;27;20066;-80
2023/08/10 06:00:28;;;;;;;4.60;2.65;;;;;;;;;;6339754;28;20044;-80
2023/08/10 06:03:29;;;;;;;7.00;2.92;;;;;;;;;;6339595;28;20043;-81
2023/08/10 06:06:31;;;;;;;4.15;2.22;;;;;;;;;;6346077;27;20056;-79
2023/08/10 06:09:33;;;;;;;5.72;2.65;;;;;;;;;;6341147;27;20205;-80
2023/08/10 06:12:35;;;;;;;4.18;2.60;;;;;;;;;;6341230;28;20062;-80
2023/08/10 06:15:37;;;;;;;5.13;2.20;;;;;;;;;;6343800;27;20046;-78
2023/08/10 06:18:39;;;;;;;3.20;2.30;;;;;;;;;;6342441;28;20067;-78
2023/08/10 06:21:40;;;;;;;8.13;2.20;;;;;;;;;;6339882;27;20055;-78
2023/08/10 06:24:42;;;;;;;3.95;2.50;;;;;;;;;;6339368;28;20378;-81
2023/08/10 06:27:44;;;;;;;5.97;2.33;;;;;;;;;;6340485;27;20115;-79
2023/08/10 06:30:47;;;;;;;4.68;2.60;;;;;;;;;;6341190;27;20051;-80
2023/08/10 06:33:48;;;;;;;5.35;2.00;;;;;;;;;;6337882;27;20055;-80
2023/08/10 06:36:50;;;;;;;4.20;1.92;;;;;;;;;;6340582;27;20062;-77
2023/08/10 06:39:52;;;;;;;5.32;2.28;;;;;;;;;;6339761;27;20043;-77
2023/08/10 06:42:53;;;;;;;5.03;1.75;;;;;;;;;;6340781;28;20043;-80
2023/08/10 06:45:56;;;;;;;5.00;2.05;;;;;;;;;;6340299;27;20509;-81
2023/08/10 06:48:57;;;;;;;6.55;1.90;;;;;;;;;;6338270;28;20134;-80
2023/08/10 06:51:59;;;;;;;4.65;1.90;;;;;;;;;;6340458;28;20120;-79
2023/08/10 06:55:00;;;;;;;3.25;1.60;;;;;;;;;;6339740;28;20055;-79
2023/08/10 06:58:02;;;;;;;5.53;1.48;;;;;;;;;;6343657;27;20043;-79
2023/08/10 07:01:05;;;;;;;5.50;1.77;;;;;;;;;;6340997;27;20351;-80
2023/08/10 07:04:07;;;;;;;;;;;;;;;;;;6340111;28;20255;-80
2023/08/10 07:07:09;;;;;;;4.05;1.70;;;;;;;;;;6338583;27;19923;-80
2023/08/10 07:10:11;;;;;;;3.27;1.30;;;;;;;;;;6340228;27;20057;-80
2023/08/10 07:13:13;;;;;;;8.40;1.90;;;;;;;;;;6333957;28;20891;-79
2023/08/10 07:16:16;;;;;;;3.75;1.50;;;;;;;;;;6341063;27;20573;-79
2023/08/10 07:19:18;;;;;;;2.10;1.42;;;;;;;;;;6339294;28;20059;-79
2023/08/10 07:22:21;;;;;;;3.42;1.42;;;;;;;;;;6338197;28;20071;-78
2023/08/10 07:25:22;;;;;;;4.20;1.45;;;;;;;;;;6340636;27;20551;-79
2023/08/10 07:28:24;;;;;;;4.18;1.10;;;;;;;;;;6339390;27;20055;-79
2023/08/10 07:31:31;;;;;;;2.10;1.20;;;;;;;;;;6339682;28;20085;-80
2023/08/10 07:34:33;;;;;;;3.20;0.93;;;;;;;;;;6336605;28;20290;-80
2023/08/10 07:37:35;;;;;;;3.00;1.48;;;;;;;;;;6339126;28;20354;-80
2023/08/10 07:40:37;;;;;;;5.33;1.17;;;;;;;;;;6337005;28;20044;-80
2023/08/10 07:43:38;;;;;;;5.30;1.10;;;;;;;;;;6313650;28;20466;-80
2023/08/10 07:46:41;;;;;;;3.38;1.08;;;;;;;;;;6314380;28;20067;-80
2023/08/10 07:49:42;;;;;;;3.00;1.30;;;;;;;;;;6314517;28;20345;-80
2023/08/10 07:52:44;;;;;;;2.92;1.20;;;;;;;;;;6316954;28;20048;-78
2023/08/10 07:55:45;;;;;;;4.45;1.40;;;;;;;;;;6314097;28;20063;-80
2023/08/10 07:58:47;;;;;;;1.65;1.00;;;;;;;;;;6316656;28;20391;-79
2023/08/10 08:01:50;;;;;;;3.45;1.02;;;;;;;;;;6311442;28;20051;-80
2023/08/10 08:04:51;;;;;;;3.00;1.05;;;;;;;;;;6315287;28;20079;-80
2023/08/10 08:07:52;;;;;;;2.10;1.40;;;;;;;;;;6314017;28;20052;-80
2023/08/10 08:10:54;;;;;;;7.85;1.90;;;;;;;;;;6313445;28;20063;-81
2023/08/10 08:13:55;;;;;;;2.90;1.30;;;;;;;;;;6312911;28;20055;-79
2023/08/10 08:16:58;;;;;;;3.15;1.33;;;;;;;;;;6313941;28;20114;-80
2023/08/10 08:20:00;;;;;;;2.15;1.02;;;;;;;;;;6310776;28;20059;-81
2023/08/10 08:23:01;;;;;;;1.73;1.20;;;;;;;;;;6312039;28;20059;-78
2023/08/10 08:26:03;;;;;;;2.65;1.10;;;;;;;;;;6312507;28;20048;-78
2023/08/10 08:29:04;;;;;;;3.33;1.13;;;;;;;;;;6313613;28;20056;-80
2023/08/10 08:32:07;;;;;;;6.95;1.25;;;;;;;;;;6310406;28;20056;-80
2023/08/10 08:35:10;;;;;;;3.45;1.23;;;;;;;;;;6312482;28;20044;-80
2023/08/10 08:38:12;;;;;;;5.03;1.17;;;;;;;;;;6312206;28;20056;-80
2023/08/10 08:41:17;;;;;;;2.95;1.30;;;;;;;;;;6309886;28;20067;-79
2023/08/10 08:44:18;;;;;;;4.20;1.17;;;;;;;;;;6313020;28;20048;-80
2023/08/10 08:47:21;;;;;;;1.92;1.05;;;;;;;;;;6312344;28;20340;-80
2023/08/10 08:50:23;;;;;;;3.65;1.23;;;;;;;;;;6311529;28;20048;-81
2023/08/10 08:53:25;;;;;;;4.20;1.50;;;;;;;;;;6311737;28;20052;-80
2023/08/10 08:56:27;;;;;;;7.22;1.85;;;;;;;;;;6314362;28;20343;-81
2023/08/10 08:59:28;;;;;;;2.60;1.15;;;;;;;;;;6314610;28;20359;-81
2023/08/10 09:02:31;;;;;;;4.57;1.52;;;;;;;;;;6311373;28;20102;-81
2023/08/10 09:05:34;;;;;;;2.88;1.23;;;;;;;;;;6312055;28;20130;-80
2023/08/10 09:08:36;;;;;;;4.13;1.33;;;;;;;;;;6312709;28;20083;-80
2023/08/10 09:11:37;;;;;;;5.72;1.58;;;;;;;;;;6311499;28;20048;-80
2023/08/10 09:14:39;;;;;;;3.47;1.40;;;;;;;;;;6311343;28;20064;-81
2023/08/10 09:17:48;;;;;;;4.82;1.60;;;;;;;;;;6310575;28;20106;-80
2023/08/10 09:20:50;;;;;;;3.53;1.40;;;;;;;;;;6311271;28;20218;-80
2023/08/10 09:23:53;;;;;;;2.38;1.65;;;;;;;;;;6312169;28;22005;-80
2023/08/10 09:26:55;;;;;;;5.38;1.75;;;;;;;;;;6312565;28;20072;-77
2023/08/10 09:29:56;;;;;;;4.55;1.52;;;;;;;;;;6311218;28;20053;-79
2023/08/10 09:32:59;;;;;;;4.00;1.13;;;;;;;;;;6309999;28;20232;-79
2023/08/10 09:36:01;;;;;;;3.30;1.30;;;;;;;;;;6313322;28;20473;-78
2023/08/10 09:39:03;;;;;;;4.70;1.77;;;;;;;;;;6315466;28;20048;-80
2023/08/10 09:42:04;;;;;;;3.05;1.50;;;;;;;;;;6317912;28;20454;-80
2023/08/10 09:45:08;;;;;;;2.53;1.63;;;;;;;;;;6317115;28;20076;-79
2023/08/10 09:48:12;;;;;;;4.32;1.20;;;;;;;;;;6315989;28;20060;-81
2023/08/10 09:51:14;;;;;;;2.30;1.20;;;;;;;;;;6316923;28;20048;-81
2023/08/10 09:54:16;;;;;;;4.28;0.98;;;;;;;;;;6315613;28;20056;-81
2023/08/10 09:57:18;;;;;;;2.67;1.30;;;;;;;;;;6317613;28;20040;-80
2023/08/10 10:00:21;;;;;;;3.03;1.10;;;;;;;;;;6319337;28;20553;-81
2023/08/10 10:03:28;;;;;;;1.58;0.90;;;;;;;;;;6315068;28;20101;-81
2023/08/10 10:06:30;;;;;;;2.47;1.55;;;;;;;;;;6316897;28;20267;-81
2023/08/10 10:09:32;;;;;;;2.35;1.40;;;;;;;;;;6315509;28;20071;-80
2023/08/10 10:12:36;;;;;;;2.40;1.63;;;;;;;;;;6317041;28;20052;-80
2023/08/10 10:15:38;;;;;;;3.90;1.35;;;;;;;;;;6315840;28;20052;-80
2023/08/10 10:18:41;;;;;;;4.15;1.00;;;;;;;;;;6315531;28;20040;-79
2023/08/10 10:21:42;;;;;;;5.75;1.30;;;;;;;;;;6316301;28;20090;-80
2023/08/10 10:24:44;;;;;;;2.58;1.33;;;;;;;;;;6315486;28;20111;-79
2023/08/10 10:27:45;;;;;;;;;;;;;;;;;;6314857;28;20448;-79
2023/08/10 10:30:54;;;;;;;2.33;1.42;;;;;;;;;;6316529;28;19932;-79
2023/08/10 10:33:57;;;;;;;5.38;1.50;;;;;;;;;;6313716;28;20110;-80
2023/08/10 10:37:06;;;;;;;4.20;1.70;;;;;;;;;;6318885;28;20090;-81
2023/08/10 10:40:14;;;;;;;3.17;1.67;;;;;;;;;;6306940;28;20056;-80
2023/08/10 10:43:15;;;;;;;1.55;1.00;;;;;;;;;;6315058;28;20083;-80
2023/08/10 10:46:36;;;;;;;4.03;1.35;;;;;;;;;;6313502;28;21601;-79
2023/08/10 10:49:52;;;;;;;6.53;1.60;;;;;;;;;;6316180;28;20071;-81
2023/08/10 10:52:54;;;;;;;3.30;1.65;;;;;;;;;;6316470;28;20360;-81
2023/08/10 10:55:56;;;;;;;2.30;1.20;;;;;;;;;;6314278;28;20067;-81
2023/08/10 10:58:58;;;;;;;;;;;;;;;;;;6315901;28;20048;-80
2023/08/10 11:02:00;;;;;;;3.55;1.40;;;;;;;;;;6315444;28;19931;-80
2023/08/10 11:05:03;;;;;;;2.70;1.50;;;;;;;;;;6313720;28;20060;-80
2023/08/10 11:08:06;;;;;;;2.92;1.30;;;;;;;;;;6316256;28;20123;-78
2023/08/10 11:11:09;;;;;;;2.83;1.52;;;;;;;;;;6315117;28;20059;-79
2023/08/10 11:14:11;;;;;;;4.18;1.40;;;;;;;;;;6315173;28;20560;-79
2023/08/10 11:17:12;;;;;;;3.25;1.77;;;;;;;;;;6318155;28;20059;-80
2023/08/10 11:20:17;;;;;;;2.80;1.52;;;;;;;;;;6313518;28;20049;-79
2023/08/10 11:23:18;;;;;;;1.88;1.20;;;;;;;;;;6311751;28;20091;-80
2023/08/10 11:26:20;;;;;;;2.53;1.33;;;;;;;;;;6317108;28;20805;-78
2023/08/10 11:29:22;;;;;;;1.95;1.30;;;;;;;;;;6313214;28;20052;-80
2023/08/10 11:32:23;;;;;;;;;;;;;;;;;;6312320;28;20062;-80
2023/08/10 11:35:26;;;;;;;2.20;1.10;;;;;;;;;;6312722;28;19915;-79
2023/08/10 11:38:28;;;;;;;3.13;1.30;;;;;;;;;;6314284;28;20056;-78
2023/08/10 11:41:39;;;;;;;2.67;1.02;;;;;;;;;;6314279;28;20047;-79
2023/08/10 11:44:46;;;;;;;1.92;1.17;;;;;;;;;;6313724;28;20299;-79
2023/08/10 11:47:51;;;;;;;2.42;1.58;;;;;;;;;;6314750;28;20052;-78
2023/08/10 11:51:00;;;;;;;5.45;1.55;;;;;;;;;;6315502;28;20048;-79
2023/08/10 11:54:08;;;;;;;5.03;1.58;;;;;;;;;;6314123;28;20068;-80
2023/08/10 11:57:11;;;;;;;2.08;1.23;;;;;;;;;;6317425;28;20052;-79
2023/08/10 12:00:21;;;;;;;3.95;1.35;;;;;;;;;;6314548;28;20047;-78
2023/08/10 12:03:24;;;;;;;1.83;1.42;;;;;;;;;;6312391;28;20079;-80
2023/08/10 12:06:27;;;;;;;3.35;1.40;;;;;;;;;;6313465;28;20056;-80
2023/08/10 12:09:30;;;;;;;3.58;1.50;;;;;;;;;;6311862;28;20096;-80
2023/08/10 12:12:32;;;;;;;1.90;1.35;;;;;;;;;;6312359;28;20055;-80
2023/08/10 12:15:36;;;;;;;3.88;1.38;;;;;;;;;;6311314;28;20325;-80
2023/08/10 12:18:37;;;;;;;4.65;1.50;;;;;;;;;;6311226;28;20128;-80
2023/08/10 12:21:40;;;;;;;4.50;1.00;;;;;;;;;;6313597;28;20052;-81
2023/08/10 12:24:42;;;;;;;2.55;1.48;;;;;;;;;;6313036;28;20056;-80
2023/08/10 12:27:43;;;;;;;2.22;1.10;;;;;;;;;;6312666;28;20056;-80
2023/08/10 12:30:45;;;;;;;1.77;1.00;;;;;;;;;;6311245;28;20049;-79
2023/08/10 12:33:46;;;;;;;2.25;1.25;;;;;;;;;;6309779;28;20068;-81
2023/08/10 12:36:49;;;;;;;2.53;1.35;;;;;;;;;;6312485;28;20052;-80
2023/08/10 12:39:51;;;;;;;2.65;1.20;;;;;;;;;;6312681;28;20053;-81
2023/08/10 12:42:52;;;;;;;;;;;;;;;;;;6312398;28;20064;-80
2023/08/10 12:45:53;;;;;;;3.47;1.00;;;;;;;;;;6310922;28;20104;-78
2023/08/10 12:48:55;;;;;;;;;;;;;;;;;;6312064;28;20067;-81
2023/08/10 12:51:57;;;;;;;1.85;1.17;;;;;;;;;;6313617;28;19919;-81
2023/08/10 12:55:00;;;;;;;1.42;1.17;;;;;;;;;;6313662;28;20040;-82
2023/08/10 12:58:01;;;;;;;1.55;1.05;;;;;;;;;;6314291;28;20051;-80
2023/08/10 13:01:03;;;;;;;2.13;1.15;;;;;;;;;;6312580;28;20093;-79
2023/08/10 13:04:04;;;;;;;;;;;;;;;;;;6312720;28;20048;-76
2023/08/10 13:07:07;;;;;;;5.65;1.42;;;;;;;;;;6312593;28;19923;-80
2023/08/10 13:10:09;;;;;;;5.43;1.73;;;;;;;;;;6314589;28;20309;-81
2023/08/10 13:13:11;;;;;;;2.13;1.30;;;;;;;;;;6319706;28;20052;-79
2023/08/10 13:16:12;;;;;;;;;;;;;;;;;;6323458;28;20332;-80
2023/08/10 13:19:17;;;;;;;3.20;1.40;;;;;;;;;;6317880;28;20229;-80
2023/08/10 13:22:20;;;;;;;2.05;1.10;;;;;;;;;;6316668;28;20051;-80
2023/08/10 13:25:21;;;;;;;2.30;1.15;;;;;;;;;;6310330;28;20060;-80
2023/08/10 13:28:23;;;;;;;2.83;1.23;;;;;;;;;;6317333;28;20125;-80
2023/08/10 13:31:24;;;;;;;3.22;1.38;;;;;;;;;;6315208;28;20338;-79
2023/08/10 13:34:26;;;;;;;2.28;1.02;;;;;;;;;;6316530;28;20062;-79
2023/08/10 13:37:27;;;;;;;;;;;;;;;;;;6316136;28;20040;-80
2023/08/10 13:40:30;;;;;;;2.10;1.20;;;;;;;;;;6318277;28;19928;-81
2023/08/10 13:43:31;;;;;;;6.03;1.45;;;;;;;;;;6314526;28;20062;-81
2023/08/10 13:46:32;;;;;;;;;;;;;;;;;;6318290;28;20044;-80
2023/08/10 13:49:35;;;;;;;1.80;1.00;;;;;;;;;;6315668;28;20109;-78
2023/08/10 13:52:37;;;;;;;2.85;1.20;;;;;;;;;;6317929;28;20068;-80
2023/08/10 13:55:40;;;;;;;6.53;1.70;;;;;;;;;;6314448;28;20057;-80
2023/08/10 13:58:41;;;;;;;3.22;1.63;;;;;;;;;;6318009;28;20059;-80
2023/08/10 14:01:42;;;;;;;1.83;1.20;;;;;;;;;;6317148;28;20048;-81
2023/08/10 14:04:44;;;;;;;1.98;1.17;;;;;;;;;;6315692;28;20449;-79
2023/08/10 14:07:46;;;;;;;3.90;1.27;;;;;;;;;;6315548;28;20079;-77
2023/08/10 14:10:49;;;;;;;3.25;1.20;;;;;;;;;;6315766;28;20062;-79
2023/08/10 14:13:50;;;;;;;3.47;1.10;;;;;;;;;;6314323;28;20048;-81
2023/08/10 14:16:52;;;;;;;2.05;1.15;;;;;;;;;;6316771;28;20355;-78
2023/08/10 14:19:53;;;;;;;4.88;1.50;;;;;;;;;;6318721;28;20367;-80
2023/08/10 14:22:55;;;;;;;2.05;1.08;;;;;;;;;;6314402;28;20151;-80
2023/08/10 14:25:58;;;;;;;3.35;1.05;;;;;;;;;;6320009;28;20056;-77
2023/08/10 14:28:59;;;;;;;2.50;1.33;;;;;;;;;;6315895;28;20110;-81
2023/08/10 14:32:00;;;;;;;3.95;1.20;;;;;;;;;;6314902;28;20089;-79
2023/08/10 14:35:02;;;;;;;4.32;1.35;;;;;;;;;;6315823;28;20056;-80
2023/08/10 14:38:03;;;;;;;;;;;;;;;;;;6315913;28;20048;-80
2023/08/10 14:41:06;;;;;;;5.97;1.23;;;;;;;;;;6315388;28;19974;-81
2023/08/10 14:44:07;;;;;;;2.00;1.30;;;;;;;;;;6316605;28;21255;-81
2023/08/10 14:47:09;;;;;;;4.45;1.30;;;;;;;;;;6315855;28;20064;-80
2023/08/10 14:50:10;;;;;;;3.05;1.20;;;;;;;;;;6315548;28;20351;-81
2023/08/10 14:53:12;;;;;;;6.88;1.30;;;;;;;;;;6316403;28;20056;-80
2023/08/10 14:56:14;;;;;;;2.92;1.50;;;;;;;;;;6312756;28;20048;-79
2023/08/10 14:59:16;;;;;;;2.10;1.38;;;;;;;;;;6313565;28;20271;-78
2023/08/10 15:02:17;;;;;;;2.67;1.08;;;;;;;;;;6316645;28;20336;-79
2023/08/10 15:05:19;;;;;;;5.80;1.67;;;;;;;;;;6312549;28;20052;-79
2023/08/10 15:08:20;;;;;;;;;;;;;;;;;;6314708;28;20052;-78
2023/08/10 15:11:23;;;;;;;1.40;1.10;;;;;;;;;;6314561;28;19924;-79
2023/08/10 15:14:25;;;;;;;3.50;1.38;;;;;;;;;;6314884;28;20048;-79
2023/08/10 15:17:26;;;;;;;2.45;1.25;;;;;;;;;;6314874;28;20094;-78
2023/08/10 15:20:27;;;;;;;3.58;1.27;;;;;;;;;;6314706;28;20098;-80
2023/08/10 15:23:29;;;;;;;3.05;1.23;;;;;;;;;;6312183;28;20270;-80
2023/08/10 15:26:32;;;;;;;4.38;1.45;;;;;;;;;;6313256;28;20052;-80
2023/08/10 15:29:33;;;;;;;3.40;1.35;;;;;;;;;;6312485;28;20059;-79
2023/08/10 15:32:35;;;;;;;1.90;1.17;;;;;;;;;;6313460;28;20058;-78
2023/08/10 15:35:40;;;;;;;2.33;1.40;;;;;;;;;;6314641;28;20046;-79
2023/08/10 15:38:41;;;;;;;2.38;1.40;;;;;;;;;;6314120;28;20056;-80
2023/08/10 15:41:44;;;;;;;3.78;1.20;;;;;;;;;;6312520;28;20049;-80
2023/08/10 15:44:47;;;;;;;5.00;1.20;;;;;;;;;;6313727;28;20275;-77
2023/08/10 15:47:48;;;;;;;3.47;1.83;;;;;;;;;;6314744;28;20267;-79
2023/08/10 15:50:50;;;;;;;4.82;1.58;;;;;;;;;;6314356;28;20337;-79
2023/08/10 15:53:51;;;;;;;5.65;1.50;;;;;;;;;;6312024;28;20577;-77
2023/08/10 15:56:54;;;;;;;2.17;1.40;;;;;;;;;;6315170;28;20055;-79
2023/08/10 15:59:55;;;;;;;5.60;1.85;;;;;;;;;;6314796;28;20110;-81
2023/08/10 16:02:57;;;;;;;3.30;1.37;;;;;;;;;;6315894;28;20048;-80
2023/08/10 16:05:58;;;;;;;5.87;1.20;;;;;;;;;;6313296;28;20337;-80
2023/08/10 16:09:00;;;;;;;1.95;1.35;;;;;;;;;;6313101;28;20064;-80
2023/08/10 16:12:04;;;;;;;1.92;1.08;;;;;;;;;;6313951;28;20052;-78
2023/08/10 16:15:06;;;;;;;2.47;1.30;;;;;;;;;;6317694;28;20087;-80
2023/08/10 16:18:08;;;;;;;;;;;;;;;;;;6311094;28;20283;-80
2023/08/10 16:21:10;;;;;;;3.55;1.20;;;;;;;;;;6309660;28;19923;-80
2023/08/10 16:24:12;;;;;;;3.55;1.38;;;;;;;;;;6313779;28;20554;-80
2023/08/10 16:27:15;;;;;;;4.03;1.30;;;;;;;;;;6311776;28;20347;-80
2023/08/10 16:30:17;;;;;;;4.18;1.10;;;;;;;;;;6309175;28;20328;-79
2023/08/10 16:33:18;;;;;;;3.03;1.17;;;;;;;;;;6312434;28;20109;-80
2023/08/10 16:36:20;;;;;;;3.03;1.30;;;;;;;;;;6312940;28;20129;-81
2023/08/10 16:39:21;;;;;;;4.45;1.35;;;;;;;;;;6313278;28;20359;-80
2023/08/10 16:42:24;;;;;;;6.07;1.65;;;;;;;;;;6313737;28;20041;-79
2023/08/10 16:45:26;;;;;;;3.72;1.50;;;;;;;;;;6310236;28;20040;-80
2023/08/10 16:48:27;;;;;;;4.35;1.30;;;;;;;;;;6312141;28;20056;-80
2023/08/10 16:51:29;;;;;;;2.05;1.23;;;;;;;;;;6310627;28;20051;-78
2023/08/10 16:54:31;;;;;;;3.20;1.20;;;;;;;;;;6314620;28;20124;-79
2023/08/10 16:57:34;;;;;;;4.57;1.33;;;;;;;;;;6314132;28;20090;-79
2023/08/10 17:00:35;;;;;;;5.63;1.30;;;;;;;;;;6313942;28;20047;-79
2023/08/10 17:03:37;;;;;;;3.08;1.25;;;;;;;;;;6310996;28;20045;-79
2023/08/10 17:06:39;;;;;;;2.10;1.20;;;;;;;;;;6312766;28;20106;-78
2023/08/10 17:09:40;;;;;;;4.95;1.45;;;;;;;;;;6313431;28;20056;-78
2023/08/10 17:12:43;;;;;;;1.98;1.30;;;;;;;;;;6312580;28;20048;-78
2023/08/10 17:15:46;;;;;;;3.38;1.25;;;;;;;;;;6313610;28;20056;-78
2023/08/10 17:18:47;;;;;;;;;;;;;;;;;;6310580;28;20041;-78
2023/08/10 17:21:48;;;;;;;3.83;1.23;;;;;;;;;;6314001;28;19947;-77
2023/08/10 17:24:50;;;;;;;3.53;1.35;;;;;;;;;;6311328;28;20060;-77
2023/08/10 17:27:52;;;;;;;3.08;1.33;;;;;;;;;;6312610;28;20059;-78
2023/08/10 17:30:55;;;;;;;4.15;1.20;;;;;;;;;;6312685;28;20063;-77
2023/08/10 17:33:59;;;;;;;;;;;;;;;;;;6313427;28;20119;-78
2023/08/10 17:37:00;;;;;;;3.38;1.80;;;;;;;;;;6314327;28;19916;-77
2023/08/10 17:40:02;;;;;;;2.08;1.10;;;;;;;;;;6312743;28;20340;-77
2023/08/10 17:43:05;;;;;;;4.65;1.35;;;;;;;;;;6309066;28;20063;-77
2023/08/10 17:46:06;;;;;;;4.47;1.17;;;;;;;;;;6317755;28;20052;-77
2023/08/10 17:49:08;;;;;;;4.68;1.23;;;;;;;;;;6311324;28;20044;-78
2023/08/10 17:52:10;;;;;;;5.17;1.50;;;;;;;;;;6312982;28;20055;-77
2023/08/10 17:55:11;;;;;;;2.13;0.93;;;;;;;;;;6313323;28;20110;-77
2023/08/10 17:58:14;;;;;;;5.75;1.42;;;;;;;;;;6317015;28;20052;-78
2023/08/10 18:01:16;;;;;;;4.13;1.20;;;;;;;;;;6316644;28;20351;-78
2023/08/10 18:04:18;;;;;;;3.33;1.20;;;;;;;;;;6316187;28;20307;-77
2023/08/10 18:07:19;;;;;;;4.63;1.33;;;;;;;;;;6318414;28;20048;-77
2023/08/10 18:10:21;;;;;;;3.15;1.40;;;;;;;;;;6313630;28;20060;-76
2023/08/10 18:13:24;;;;;;;1.73;1.25;;;;;;;;;;6315588;28;20340;-77
2023/08/10 18:16:25;;;;;;;6.07;1.30;;;;;;;;;;6317225;28;20107;-76
2023/08/10 18:19:27;;;;;;;2.30;1.27;;;;;;;;;;6313812;28;20048;-77